Time;durP1;ratioP1;P1;durP2;ratioP2;P2;SDS_P1;SDS_P2;PMS_P1;PMS_P2;Temp;Humidity;BMP_temperature;BMP_pressure;BME280_temperature;BME280_humidity;BME280_pressure;Samples;Min_cycle;Max_cycle;Signal;HPM_P1;HPM_P2
2024/03/21 07:15:07;;;;;;;7.63;3.30;;;;;;;;;;2084847;28;20565;-67
2024/03/21 07:34:28;;;;;;;6.18;3.00;;;;;;;11.67;83.85;96972.97;2103531;27;20552;-66
2024/03/21 08:00:19;;;;;;;8.10;5.00;;;;;;;11.60;86.84;97003.78;2086941;27;20869;-69
2024/03/21 08:02:59;;;;;;;10.88;5.63;;;;;;;11.81;86.94;97005.50;2084149;28;20592;-65
2024/03/21 08:04:04;;;;;;;12.90;5.50;;;;;;;11.81;86.59;97006.38;2078163;28;20676;-67
2024/03/21 08:05:05;;;;;;;7.00;3.60;;;;;;;11.95;86.29;97008.41;2071788;28;20199;-67
2024/03/21 08:06:06;;;;;;;17.63;5.47;;;;;;;12.11;85.98;97007.72;2076105;28;20243;-67
2024/03/21 08:07:06;;;;;;;9.00;4.30;;;;;;;12.18;84.68;97010.00;2066719;28;20249;-68
2024/03/21 08:08:07;;;;;;;10.27;4.30;;;;;;;12.40;84.38;97016.88;2068339;28;20252;-68
2024/03/21 08:09:09;;;;;;;5.00;3.43;;;;;;;12.58;83.63;97010.78;2067251;28;20197;-67
2024/03/21 08:10:09;;;;;;;8.20;3.47;;;;;;;12.56;83.36;97010.00;2066121;28;20194;-67
2024/03/21 08:11:10;;;;;;;7.33;3.37;;;;;;;12.63;83.21;97015.78;2063865;28;20245;-67
2024/03/21 08:12:12;;;;;;;7.88;3.70;;;;;;;12.75;82.89;97017.00;2067141;28;20222;-67
2024/03/21 08:13:12;;;;;;;8.38;4.35;;;;;;;12.90;83.04;97020.69;2065396;28;20245;-68
2024/03/21 08:14:13;;;;;;;10.03;3.27;;;;;;;12.89;82.82;97017.19;2065998;28;20209;-67
2024/03/21 08:15:13;;;;;;;7.00;3.33;;;;;;;12.91;82.02;97014.47;2064334;28;20241;-68
2024/03/21 08:16:14;;;;;;;10.50;3.60;;;;;;;13.10;81.40;97014.44;2071734;28;20722;-69
2024/03/21 08:17:14;;;;;;;8.53;3.63;;;;;;;13.15;81.06;97019.47;2071886;28;20210;-68
2024/03/21 08:18:15;;;;;;;6.37;3.83;;;;;;;13.25;80.76;97027.75;2060790;28;20217;-68
2024/03/21 08:19:15;;;;;;;8.30;3.67;;;;;;;13.36;80.36;97026.28;2063083;28;20221;-67
2024/03/21 08:20:16;;;;;;;7.67;3.70;;;;;;;13.49;79.95;97031.78;2071032;28;20703;-67
2024/03/21 08:21:18;;;;;;;5.10;3.10;;;;;;;13.44;80.29;97027.72;2065724;28;20217;-68
2024/03/21 08:22:18;;;;;;;5.82;3.05;;;;;;;13.43;80.15;97026.00;2062014;28;20225;-68
2024/03/21 08:23:19;;;;;;;6.70;3.50;;;;;;;13.44;80.05;97039.03;2068218;28;20292;-68
2024/03/21 08:24:22;;;;;;;9.52;3.90;;;;;;;13.37;80.17;97041.13;2061242;28;20429;-68
2024/03/21 08:25:23;;;;;;;7.97;3.28;;;;;;;13.32;80.43;97039.59;2065781;28;20225;-67
2024/03/21 08:26:23;;;;;;;6.73;3.33;;;;;;;13.26;81.11;97043.38;2063453;28;20309;-68
2024/03/21 08:27:24;;;;;;;6.47;3.57;;;;;;;13.23;81.07;97043.56;2074534;28;20209;-68
2024/03/21 08:28:24;;;;;;;9.90;3.10;;;;;;;13.09;81.26;97041.59;2062890;28;20215;-68
2024/03/21 08:31:13;;;;;;;8.70;3.88;;;;;;;13.12;82.14;97041.44;2085183;28;20576;-66
2024/03/21 08:32:13;;;;;;;8.23;3.40;;;;;;;13.14;82.34;97050.09;2082803;28;20713;-66
2024/03/21 08:33:17;;;;;;;8.97;3.83;;;;;;;13.11;81.89;97047.59;2075325;28;20594;-66
2024/03/21 08:34:18;;;;;;;6.15;3.45;;;;;;;13.15;82.16;97048.31;2076982;28;20298;-66
2024/03/21 08:35:18;;;;;;;12.03;3.63;;;;;;;13.19;81.37;97048.09;2070956;28;20230;-66
2024/03/21 08:37:46;;;;;;;8.27;3.35;;;;;;;13.10;81.24;97050.31;2087494;28;20571;-67
2024/03/21 08:38:46;;;;;;;5.10;3.07;;;;;;;13.09;80.73;97062.56;2080254;28;20284;-68
2024/03/21 08:39:47;;;;;;;6.93;3.27;;;;;;;13.18;80.69;97058.63;2078446;28;20835;-68
2024/03/21 08:40:52;;;;;;;6.87;3.77;;;;;;;13.22;80.51;97060.22;2071571;28;20210;-69
2024/03/21 08:41:52;;;;;;;8.73;3.47;;;;;;;13.54;79.97;97063.88;2065351;28;20241;-68
2024/03/21 08:42:53;;;;;;;8.50;4.30;;;;;;;13.72;79.59;97063.88;2068390;28;20236;-68
2024/03/21 08:43:53;;;;;;;9.57;3.40;;;;;;;13.85;78.42;97056.22;2067740;28;20218;-68
2024/03/21 08:44:55;;;;;;;9.83;3.43;;;;;;;14.22;78.02;97067.47;2066461;28;20265;-67
2024/03/21 08:45:56;;;;;;;10.75;3.53;;;;;;;14.42;77.25;97066.38;2064478;28;20198;-67
2024/03/21 08:46:56;;;;;;;5.97;2.83;;;;;;;14.42;77.25;97066.38;2066204;28;20264;-67
2024/03/21 08:47:57;;;;;;;7.20;3.23;;;;;;;15.59;72.99;97066.09;2067578;28;20201;-67
2024/03/21 08:48:58;;;;;;;7.93;3.00;;;;;;;15.59;72.68;97068.72;2068107;28;20711;-67
2024/03/21 08:49:58;;;;;;;9.53;3.63;;;;;;;15.31;73.33;97071.19;2068801;28;20213;-67
2024/03/21 08:50:59;;;;;;;6.30;3.17;;;;;;;15.06;73.28;97063.84;2066840;28;20225;-67
2024/03/21 08:51:59;;;;;;;10.70;3.47;;;;;;;14.96;74.10;97070.53;2073682;28;20276;-67
2024/03/21 08:53:00;;;;;;;9.00;3.47;;;;;;;14.98;72.91;97073.91;2070780;28;20670;-67
2024/03/21 08:54:00;;;;;;;4.80;2.80;;;;;;;-145.49;100.00;55703.94;2064656;28;20210;-67
2024/03/21 08:55:01;;;;;;;4.93;2.53;;;;;;;-145.49;100.00;55703.94;2050842;28;20218;-66
2024/03/21 08:56:01;;;;;;;5.70;3.07;;;;;;;-145.49;100.00;55703.94;2073543;28;20219;-67
2024/03/21 08:57:02;;;;;;;5.80;2.93;;;;;;;-145.49;100.00;55703.94;2076055;28;20236;-67
2024/03/21 08:58:03;;;;;;;9.00;3.63;;;;;;;-145.49;100.00;55703.94;2066926;28;20210;-66
2024/03/21 08:59:04;;;;;;;8.30;3.75;;;;;;;-145.49;100.00;55703.94;2064713;28;20207;-67
2024/03/21 09:00:05;;;;;;;7.90;3.53;;;;;;;-145.49;100.00;55703.94;2073439;28;20219;-66
2024/03/21 09:01:05;;;;;;;9.57;3.30;;;;;;;-145.49;100.00;55703.94;2076547;28;20213;-67
2024/03/21 09:02:06;;;;;;;5.57;3.10;;;;;;;-145.49;100.00;55703.94;2069157;28;20202;-66
2024/03/21 09:03:08;;;;;;;8.03;4.00;;;;;;;-145.49;100.00;55703.94;2068156;28;20251;-66
2024/03/21 09:04:08;;;;;;;7.65;3.22;;;;;;;-145.49;100.00;55703.94;2066236;28;20221;-68
2024/03/21 09:05:10;;;;;;;7.73;3.83;;;;;;;-145.49;100.00;55703.94;2074333;28;20220;-68
2024/03/21 09:06:11;;;;;;;5.82;3.55;;;;;;;-145.49;100.00;55703.94;2070217;28;20286;-67
2024/03/21 09:07:11;;;;;;;6.90;3.80;;;;;;;-145.49;100.00;55703.94;2062781;28;20210;-67
2024/03/21 09:08:12;;;;;;;7.70;3.63;;;;;;;-145.49;100.00;55703.94;2064170;28;20455;-66
2024/03/21 09:09:12;;;;;;;12.73;4.20;;;;;;;-145.49;100.00;55703.94;2073228;28;20239;-67
2024/03/21 09:10:13;;;;;;;7.87;4.00;;;;;;;-145.49;100.00;55703.94;2067145;28;20213;-66
2024/03/21 09:11:13;;;;;;;9.07;3.97;;;;;;;-145.49;100.00;55703.94;2061306;28;20302;-67
2024/03/21 09:12:14;;;;;;;9.13;4.13;;;;;;;-145.49;100.00;55703.94;2064269;28;20554;-68
2024/03/21 09:13:15;;;;;;;9.07;4.30;;;;;;;-145.49;100.00;55703.94;2073988;28;20199;-67
2024/03/21 09:14:15;;;;;;;10.13;4.40;;;;;;;-145.49;100.00;55703.94;2064746;28;20579;-67
2024/03/21 09:15:17;;;;;;;7.50;3.77;;;;;;;-145.49;100.00;55703.94;2068001;28;20297;-67
2024/03/21 09:16:18;;;;;;;8.05;3.53;;;;;;;-145.49;100.00;55703.94;2065632;28;20248;-67
2024/03/21 09:17:18;;;;;;;8.53;3.80;;;;;;;-145.49;100.00;55703.94;2066901;28;20213;-67
2024/03/21 09:18:19;;;;;;;8.40;3.83;;;;;;;-145.49;100.00;55703.94;2068948;28;20209;-68
2024/03/21 09:19:19;;;;;;;7.90;4.23;;;;;;;-145.49;100.00;55703.94;2066573;28;20273;-67
2024/03/21 09:20:20;;;;;;;8.43;3.87;;;;;;;-145.49;100.00;55703.94;2062071;28;20374;-67
2024/03/21 09:21:21;;;;;;;9.20;4.50;;;;;;;-145.49;100.00;55703.94;2069291;28;20281;-67
2024/03/21 09:22:21;;;;;;;6.43;4.33;;;;;;;-145.49;100.00;55703.94;2075957;28;20537;-68
2024/03/21 09:23:22;;;;;;;12.50;6.07;;;;;;;-145.49;100.00;55703.94;2073108;28;20309;-69
2024/03/21 09:24:23;;;;;;;13.50;7.97;;;;;;;-145.49;100.00;55703.94;2075294;28;20206;-69
2024/03/21 09:25:23;;;;;;;19.83;9.93;;;;;;;-145.49;100.00;55703.94;2070031;28;20296;-71
2024/03/21 09:26:24;;;;;;;13.77;4.67;;;;;;;-145.49;100.00;55703.94;2070568;28;20220;-67
2024/03/21 09:27:24;;;;;;;7.07;3.93;;;;;;;-145.49;100.00;55703.94;2075272;28;20847;-66
2024/03/21 09:28:25;;;;;;;7.00;4.13;;;;;;;-145.49;100.00;55703.94;2076590;28;20218;-67
2024/03/21 09:29:25;;;;;;;6.00;3.37;;;;;;;-145.49;100.00;55703.94;2067820;28;20215;-66
2024/03/21 09:30:26;;;;;;;8.47;4.70;;;;;;;-145.49;100.00;55703.94;2065510;28;20273;-66
2024/03/21 09:31:26;;;;;;;8.83;4.03;;;;;;;-145.49;100.00;55703.94;2060981;28;20203;-66
2024/03/21 09:32:27;;;;;;;10.47;3.50;;;;;;;-145.49;100.00;55703.94;2062480;28;20202;-67
2024/03/21 09:33:27;;;;;;;7.10;3.13;;;;;;;-145.49;100.00;55703.94;2066877;28;20290;-64
2024/03/21 09:34:28;;;;;;;7.53;3.83;;;;;;;-145.49;100.00;55703.94;2062372;28;20211;-64
2024/03/21 09:35:29;;;;;;;8.77;4.30;;;;;;;-145.49;100.00;55703.94;2051314;28;20235;-65
2024/03/21 09:36:29;;;;;;;5.37;3.50;;;;;;;-145.49;100.00;55703.94;2070837;28;20210;-64
2024/03/21 09:37:30;;;;;;;8.17;3.67;;;;;;;-145.49;100.00;55703.94;2072998;28;20237;-64
2024/03/21 09:38:30;;;;;;;10.80;3.77;;;;;;;-145.49;100.00;55703.94;2068056;28;20205;-64
2024/03/21 09:39:31;;;;;;;7.33;3.30;;;;;;;-145.49;100.00;55703.94;2067453;28;20198;-64
2024/03/21 09:40:31;;;;;;;7.17;3.30;;;;;;;-145.49;100.00;55703.94;2066919;28;20251;-65
2024/03/21 09:41:32;;;;;;;8.53;3.70;;;;;;;-145.49;100.00;55703.94;2067444;28;20640;-65
2024/03/21 09:42:33;;;;;;;10.88;4.00;;;;;;;-145.49;100.00;55703.94;2061250;28;20716;-64
2024/03/21 09:43:34;;;;;;;13.63;3.70;;;;;;;-145.49;100.00;55703.94;2062309;28;20657;-65
2024/03/21 09:44:35;;;;;;;8.00;3.40;;;;;;;-145.49;100.00;55703.94;2066535;28;20218;-64
2024/03/21 09:45:39;;;;;;;9.03;3.60;;;;;;;-145.49;100.00;55703.94;2065545;28;20222;-65
2024/03/21 09:46:42;;;;;;;7.20;3.65;;;;;;;-145.49;100.00;55703.94;2066157;28;20281;-64
2024/03/21 09:47:42;;;;;;;10.32;3.53;;;;;;;-145.49;100.00;55703.94;2064087;28;20198;-65
2024/03/21 09:48:46;;;;;;;19.13;11.47;;;;;;;-145.49;100.00;55703.94;2059692;28;20211;-65
2024/03/21 09:49:47;;;;;;;10.57;6.03;;;;;;;-145.49;100.00;55703.94;2067235;28;20206;-65
2024/03/21 09:50:48;;;;;;;12.45;5.72;;;;;;;-145.49;100.00;55703.94;2068206;28;20296;-65
2024/03/21 09:51:48;;;;;;;15.30;4.30;;;;;;;-145.49;100.00;55703.94;2059483;28;20211;-65
2024/03/21 09:52:50;;;;;;;9.97;3.93;;;;;;;-145.49;100.00;55703.94;2066388;28;20218;-65
2024/03/21 09:53:51;;;;;;;13.40;4.57;;;;;;;-145.49;100.00;55703.94;2068209;28;20213;-65
2024/03/21 09:54:51;;;;;;;12.90;3.75;;;;;;;-145.49;100.00;55703.94;2068465;28;20268;-65
2024/03/21 09:55:52;;;;;;;6.90;3.60;;;;;;;-145.49;100.00;55703.94;2061172;28;20227;-65
2024/03/21 09:56:53;;;;;;;9.93;4.00;;;;;;;-145.49;100.00;55703.94;2061409;28;20206;-65
2024/03/21 09:57:54;;;;;;;10.70;4.65;;;;;;;-145.49;100.00;55703.94;2057508;28;20217;-66
2024/03/21 09:58:55;;;;;;;9.93;3.90;;;;;;;-145.49;100.00;55703.94;2057388;28;20329;-65
2024/03/21 09:59:55;;;;;;;8.00;4.00;;;;;;;-145.49;100.00;55703.94;2055320;28;20265;-65
2024/03/21 10:00:57;;;;;;;8.53;4.60;;;;;;;-145.49;100.00;55703.94;2050629;28;20322;-65
2024/03/21 10:01:57;;;;;;;9.73;4.22;;;;;;;-145.49;100.00;55703.94;2059946;28;20214;-65
2024/03/21 10:02:58;;;;;;;9.57;3.83;;;;;;;-145.49;100.00;55703.94;2060726;28;20237;-65
2024/03/21 10:03:58;;;;;;;11.43;4.20;;;;;;;-145.49;100.00;55703.94;2060582;28;20203;-65
2024/03/21 10:04:59;;;;;;;8.60;4.57;;;;;;;-145.49;100.00;55703.94;2060790;28;20650;-65
2024/03/21 10:06:06;;;;;;;12.80;4.60;;;;;;;-145.49;100.00;55703.94;2062431;28;20298;-65
2024/03/21 10:07:22;;;;;;;7.72;4.30;;;;;;;-145.49;100.00;55703.94;2061773;28;20265;-65
2024/03/21 10:08:22;;;;;;;9.60;4.45;;;;;;;-145.49;100.00;55703.94;2059838;28;20716;-64
2024/03/21 10:09:23;;;;;;;12.70;5.40;;;;;;;-145.49;100.00;55703.94;2055474;28;20622;-67
2024/03/21 10:10:25;;;;;;;10.30;5.53;;;;;;;-145.49;100.00;55703.94;2062990;28;20951;-64
2024/03/21 10:11:26;;;;;;;14.45;6.03;;;;;;;-145.49;100.00;55703.94;2060704;28;20203;-64
2024/03/21 10:12:27;;;;;;;9.90;4.90;;;;;;;-145.49;100.00;55703.94;2064159;28;20198;-65
2024/03/21 10:13:27;;;;;;;18.20;5.40;;;;;;;-145.49;100.00;55703.94;2051982;28;20199;-65
2024/03/21 10:14:28;;;;;;;10.83;5.43;;;;;;;-145.49;100.00;55703.94;2053342;28;20208;-67
2024/03/21 10:15:29;;;;;;;14.60;7.83;;;;;;;-145.49;100.00;55703.94;2058981;28;20234;-65
2024/03/21 10:16:31;;;;;;;12.48;6.90;;;;;;;-145.49;100.00;55703.94;2066983;28;20233;-65
2024/03/21 10:17:32;;;;;;;13.93;6.47;;;;;;;-145.49;100.00;55703.94;2059310;28;20828;-65
2024/03/21 10:18:32;;;;;;;14.47;6.00;;;;;;;-145.49;100.00;55703.94;2061217;28;20228;-66
2024/03/21 10:19:33;;;;;;;11.23;6.27;;;;;;;-145.49;100.00;55703.94;2058209;28;20524;-65
2024/03/21 10:20:33;;;;;;;13.33;5.40;;;;;;;-145.49;100.00;55703.94;2056823;28;20218;-65
2024/03/21 10:21:34;;;;;;;8.70;5.43;;;;;;;-145.49;100.00;55703.94;2056877;28;20573;-65
2024/03/21 10:22:35;;;;;;;13.30;6.15;;;;;;;-145.49;100.00;55703.94;2058558;28;20218;-65
2024/03/21 10:23:36;;;;;;;11.53;6.17;;;;;;;-145.49;100.00;55703.94;2060677;28;20211;-67
2024/03/21 10:24:36;;;;;;;11.23;6.00;;;;;;;-145.49;100.00;55703.94;2069145;28;20289;-66
2024/03/21 10:25:37;;;;;;;8.60;5.10;;;;;;;-145.49;100.00;55703.94;2061327;28;20298;-65
2024/03/21 10:26:38;;;;;;;12.55;5.45;;;;;;;-145.49;100.00;55703.94;2070286;28;20203;-65
2024/03/21 10:27:41;;;;;;;13.20;5.90;;;;;;;-145.49;100.00;55703.94;2068960;28;20683;-65
2024/03/21 10:28:43;;;;;;;7.53;4.90;;;;;;;-145.49;100.00;55703.94;2060832;28;20209;-65
2024/03/21 10:29:45;;;;;;;11.88;6.30;;;;;;;-145.49;100.00;55703.94;2057510;28;20404;-65
2024/03/21 10:30:46;;;;;;;14.45;6.57;;;;;;;-145.49;100.00;55703.94;2059244;28;20913;-65
2024/03/21 10:31:47;;;;;;;14.93;6.70;;;;;;;-145.49;100.00;55703.94;2061056;28;20242;-65
2024/03/21 10:32:48;;;;;;;20.15;6.88;;;;;;;-145.49;100.00;55703.94;2061457;28;20214;-65
2024/03/21 10:33:52;;;;;;;11.17;5.80;;;;;;;-145.49;100.00;55703.94;2057947;28;20218;-65
2024/03/21 10:34:53;;;;;;;16.55;11.15;;;;;;;-145.49;100.00;55703.94;2056846;28;20206;-63
2024/03/21 10:35:56;;;;;;;22.65;12.25;;;;;;;-145.49;100.00;55703.94;2054701;28;20223;-63
2024/03/21 10:36:57;;;;;;;36.13;23.05;;;;;;;-145.49;100.00;55703.94;2051931;28;20216;-65
2024/03/21 10:37:58;;;;;;;8.93;6.40;;;;;;;-145.49;100.00;55703.94;2054711;28;20267;-64
2024/03/21 10:38:58;;;;;;;11.00;5.60;;;;;;;-145.49;100.00;55703.94;2053261;28;20203;-64
2024/03/21 10:40:01;;;;;;;9.18;5.30;;;;;;;-145.49;100.00;55703.94;2057793;28;20242;-64
2024/03/21 10:41:18;;;;;;;11.27;5.83;;;;;;;-145.49;100.00;55703.94;2059842;28;20716;-64
2024/03/21 10:42:26;;;;;;;12.23;5.22;;;;;;;-145.49;100.00;55703.94;2062310;28;20906;-65
2024/03/21 10:43:30;;;;;;;9.52;5.38;;;;;;;-145.49;100.00;55703.94;2062805;28;20210;-64
2024/03/21 10:44:31;;;;;;;10.77;4.60;;;;;;;-145.49;100.00;55703.94;2067296;28;20217;-64
2024/03/21 10:45:33;;;;;;;12.27;4.83;;;;;;;-145.49;100.00;55703.94;2059851;28;20219;-64
2024/03/21 10:46:38;;;;;;;11.57;4.80;;;;;;;-145.49;100.00;55703.94;2061058;28;20966;-64
2024/03/21 10:47:54;;;;;;;9.70;5.05;;;;;;;-145.49;100.00;55703.94;2056473;28;20207;-64
2024/03/21 10:48:58;;;;;;;9.20;4.88;;;;;;;-145.49;100.00;55703.94;2059815;28;20568;-65
2024/03/21 10:49:58;;;;;;;10.25;4.65;;;;;;;-145.49;100.00;55703.94;2066558;28;20664;-65
2024/03/21 10:51:39;;;;;;;10.30;5.27;;;;;;;-145.49;100.00;55703.94;2056145;28;20672;-65
2024/03/21 10:52:47;;;;;;;11.00;5.85;;;;;;;-145.49;100.00;55703.94;2062593;28;20218;-65
2024/03/21 10:53:55;;;;;;;13.60;6.10;;;;;;;-145.49;100.00;55703.94;2052956;28;20200;-65
2024/03/21 10:54:57;;;;;;;11.65;5.82;;;;;;;-145.49;100.00;55703.94;2045251;28;20208;-65
2024/03/21 10:55:58;;;;;;;18.25;5.38;;;;;;;-145.49;100.00;55703.94;2051128;28;20285;-65
2024/03/21 10:57:00;;;;;;;15.63;5.40;;;;;;;-145.49;100.00;55703.94;2050772;28;20285;-65
2024/03/21 10:58:05;;;;;;;10.60;4.72;;;;;;;-145.49;100.00;55703.94;2052835;28;20265;-64
2024/03/21 10:59:05;;;;;;;10.60;5.03;;;;;;;-145.49;100.00;55703.94;2052607;28;20203;-64
2024/03/21 11:00:14;;;;;;;12.50;5.40;;;;;;;-145.49;100.00;55703.94;2041548;28;20774;-65
2024/03/21 11:01:14;;;;;;;9.50;4.82;;;;;;;-145.49;100.00;55703.94;2052960;28;20212;-64
2024/03/21 11:02:15;;;;;;;10.53;6.10;;;;;;;-145.49;100.00;55703.94;2051156;28;20859;-65
2024/03/21 11:03:16;;;;;;;13.20;6.00;;;;;;;-145.49;100.00;55703.94;2044525;28;20263;-64
2024/03/21 11:04:16;;;;;;;10.70;5.93;;;;;;;-145.49;100.00;55703.94;2044050;29;20294;-65
2024/03/21 11:05:19;;;;;;;8.60;5.83;;;;;;;-145.49;100.00;55703.94;2042319;28;20641;-65
2024/03/21 11:06:20;;;;;;;10.00;6.15;;;;;;;-145.49;100.00;55703.94;2049732;28;20758;-65
2024/03/21 11:07:22;;;;;;;12.77;5.70;;;;;;;-145.49;100.00;55703.94;2050223;28;20246;-65
2024/03/21 11:08:26;;;;;;;10.95;6.75;;;;;;;-145.49;100.00;55703.94;2041752;28;20199;-65
2024/03/21 11:09:33;;;;;;;11.60;7.15;;;;;;;-145.49;100.00;55703.94;2042686;28;20714;-65
2024/03/21 11:10:34;;;;;;;11.60;6.78;;;;;;;-145.49;100.00;55703.94;2037314;28;20728;-65
2024/03/21 11:11:34;;;;;;;10.60;6.73;;;;;;;-145.49;100.00;55703.94;2035687;29;20557;-65
2024/03/21 11:12:35;;;;;;;11.57;6.50;;;;;;;-145.49;100.00;55703.94;2035761;29;20447;-65
2024/03/21 11:13:36;;;;;;;16.40;6.97;;;;;;;-145.49;100.00;55703.94;2042665;29;20291;-65
2024/03/21 11:14:38;;;;;;;14.70;7.50;;;;;;;-145.49;100.00;55703.94;2043324;29;20454;-65
2024/03/21 11:15:38;;;;;;;16.05;7.13;;;;;;;-145.49;100.00;55703.94;2038753;28;20267;-64
2024/03/21 11:16:40;;;;;;;15.57;7.63;;;;;;;-145.49;100.00;55703.94;2036582;29;20212;-65
2024/03/21 11:17:41;;;;;;;14.90;6.90;;;;;;;-145.49;100.00;55703.94;2037735;29;20228;-65
2024/03/21 11:18:41;;;;;;;19.00;7.87;;;;;;;-145.49;100.00;55703.94;2036731;29;20817;-64
2024/03/21 11:19:42;;;;;;;10.77;6.70;;;;;;;-145.49;100.00;55703.94;2049307;28;20493;-65
2024/03/21 11:20:43;;;;;;;15.77;8.20;;;;;;;-145.49;100.00;55703.94;2041968;28;20681;-65
2024/03/21 11:21:46;;;;;;;17.50;9.53;;;;;;;-145.49;100.00;55703.94;2043050;29;20705;-65
2024/03/21 11:22:46;;;;;;;14.15;9.38;;;;;;;-145.49;100.00;55703.94;2042758;28;20208;-65
2024/03/21 11:23:47;;;;;;;14.70;8.93;;;;;;;-145.49;100.00;55703.94;2042552;29;20741;-65
2024/03/21 11:24:49;;;;;;;15.53;8.20;;;;;;;-145.49;100.00;55703.94;2057334;28;20207;-65
2024/03/21 11:25:49;;;;;;;12.52;8.07;;;;;;;-145.49;100.00;55703.94;2055109;28;20219;-65
2024/03/21 11:26:50;;;;;;;12.70;8.97;;;;;;;-145.49;100.00;55703.94;2042606;29;20208;-65
2024/03/21 11:27:51;;;;;;;13.17;7.90;;;;;;;-145.49;100.00;55703.94;2042191;29;20777;-64
2024/03/21 11:28:51;;;;;;;12.13;7.57;;;;;;;-145.49;100.00;55703.94;2049377;28;20269;-65
2024/03/21 11:29:52;;;;;;;12.20;7.63;;;;;;;-145.49;100.00;55703.94;2053707;28;20215;-65
2024/03/21 11:30:52;;;;;;;13.53;7.83;;;;;;;-145.49;100.00;55703.94;2053127;28;20246;-65
2024/03/21 11:31:53;;;;;;;11.63;7.40;;;;;;;-145.49;100.00;55703.94;2058605;28;20207;-65
2024/03/21 11:32:53;;;;;;;9.97;6.63;;;;;;;-145.49;100.00;55703.94;2060724;28;20210;-65
2024/03/21 11:33:54;;;;;;;11.07;7.43;;;;;;;-145.49;100.00;55703.94;2069319;28;20214;-65
2024/03/21 11:34:55;;;;;;;10.87;7.30;;;;;;;-145.49;100.00;55703.94;2062787;28;20626;-65
2024/03/21 11:35:55;;;;;;;17.27;8.40;;;;;;;-145.49;100.00;55703.94;2060811;28;20229;-64
2024/03/21 11:36:56;;;;;;;12.90;7.27;;;;;;;-145.49;100.00;55703.94;2069681;28;20443;-65
2024/03/21 11:37:57;;;;;;;12.00;7.43;;;;;;;-145.49;100.00;55703.94;2060790;28;20535;-64
2024/03/21 11:38:57;;;;;;;13.83;8.17;;;;;;;-145.49;100.00;55703.94;2054052;28;20284;-64
2024/03/21 11:39:59;;;;;;;16.30;6.60;;;;;;;-145.49;100.00;55703.94;2051743;28;20208;-65
2024/03/21 11:40:59;;;;;;;18.20;6.80;;;;;;;-145.49;100.00;55703.94;2048659;28;20216;-64
2024/03/21 11:42:00;;;;;;;17.70;7.57;;;;;;;-145.49;100.00;55703.94;2056384;28;20221;-64
2024/03/21 11:43:05;;;;;;;13.37;7.70;;;;;;;-145.49;100.00;55703.94;2057973;28;20641;-65
2024/03/21 11:44:12;;;;;;;13.45;7.25;;;;;;;-145.49;100.00;55703.94;2059265;28;20198;-65
2024/03/21 11:45:14;;;;;;;12.60;7.97;;;;;;;-145.49;100.00;55703.94;2065283;28;20761;-65
2024/03/21 11:46:15;;;;;;;12.35;6.20;;;;;;;-145.49;100.00;55703.94;2061110;28;20580;-65
2024/03/21 11:47:16;;;;;;;14.00;6.70;;;;;;;-145.49;100.00;55703.94;2061189;28;20214;-64
2024/03/21 11:48:20;;;;;;;9.75;5.60;;;;;;;-145.49;100.00;55703.94;2058911;28;20637;-65
2024/03/21 11:49:21;;;;;;;10.48;6.43;;;;;;;-145.49;100.00;55703.94;2069667;28;20216;-65
2024/03/21 11:50:24;;;;;;;10.40;6.50;;;;;;;-145.49;100.00;55703.94;2067074;28;20727;-65
2024/03/21 11:51:25;;;;;;;10.98;6.25;;;;;;;-145.49;100.00;55703.94;2062721;28;20206;-65
2024/03/21 11:52:25;;;;;;;16.40;7.00;;;;;;;-145.49;100.00;55703.94;2060177;28;20452;-65
2024/03/21 11:53:26;;;;;;;15.60;6.60;;;;;;;-145.49;100.00;55703.94;2064856;28;20760;-65
2024/03/21 11:54:26;;;;;;;16.33;7.20;;;;;;;-145.49;100.00;55703.94;2067591;28;20233;-65
2024/03/21 11:55:27;;;;;;;15.53;7.00;;;;;;;-145.49;100.00;55703.94;2051529;28;20219;-65
2024/03/21 11:56:27;;;;;;;12.23;6.00;;;;;;;-145.49;100.00;55703.94;2050614;28;20212;-65
2024/03/21 11:57:28;;;;;;;13.10;6.90;;;;;;;-145.49;100.00;55703.94;2054549;28;20282;-65
2024/03/21 11:58:28;;;;;;;13.93;6.33;;;;;;;-145.49;100.00;55703.94;2060136;28;20210;-65
2024/03/21 11:59:30;;;;;;;18.33;5.93;;;;;;;-145.49;100.00;55703.94;2057935;28;20629;-65
2024/03/21 12:00:31;;;;;;;13.23;5.93;;;;;;;-145.49;100.00;55703.94;2054370;28;20253;-65
2024/03/21 12:01:32;;;;;;;14.23;6.27;;;;;;;-145.49;100.00;55703.94;2067291;28;20249;-65
2024/03/21 12:02:32;;;;;;;17.23;6.17;;;;;;;-145.49;100.00;55703.94;2057642;28;20397;-69
2024/03/21 12:03:33;;;;;;;12.20;6.30;;;;;;;-145.49;100.00;55703.94;2054259;28;20637;-69
2024/03/21 12:04:33;;;;;;;8.73;6.03;;;;;;;-145.49;100.00;55703.94;2061589;28;20307;-69
2024/03/21 12:05:34;;;;;;;10.60;6.50;;;;;;;-145.49;100.00;55703.94;2054225;28;20241;-69
2024/03/21 12:06:34;;;;;;;10.37;6.90;;;;;;;-145.49;100.00;55703.94;2060326;28;20293;-69
2024/03/21 12:07:41;;;;;;;14.67;6.53;;;;;;;-145.49;100.00;55703.94;2052940;28;20463;-69
2024/03/21 12:08:42;;;;;;;11.93;5.90;;;;;;;-145.49;100.00;55703.94;2065523;28;20206;-69
2024/03/21 12:09:43;;;;;;;14.03;6.90;;;;;;;-145.49;100.00;55703.94;2069238;28;20474;-69
2024/03/21 12:10:43;;;;;;;10.77;5.87;;;;;;;-145.49;100.00;55703.94;2059014;28;20571;-69
2024/03/21 12:11:44;;;;;;;15.90;6.90;;;;;;;-145.49;100.00;55703.94;2058623;28;20457;-69
2024/03/21 12:12:44;;;;;;;9.53;5.37;;;;;;;-145.49;100.00;55703.94;2058603;28;20269;-69
2024/03/21 12:13:45;;;;;;;14.40;5.93;;;;;;;-145.49;100.00;55703.94;2065275;28;20207;-69
2024/03/21 12:14:46;;;;;;;15.38;6.40;;;;;;;-145.49;100.00;55703.94;2059148;28;20596;-69
2024/03/21 12:15:46;;;;;;;14.60;5.70;;;;;;;-145.49;100.00;55703.94;2057143;28;20223;-69
2024/03/21 12:16:47;;;;;;;13.93;6.37;;;;;;;-145.49;100.00;55703.94;2058734;28;20659;-69
2024/03/21 12:17:47;;;;;;;12.63;5.73;;;;;;;-145.49;100.00;55703.94;2058306;28;20234;-69
2024/03/21 12:18:48;;;;;;;11.60;5.30;;;;;;;-145.49;100.00;55703.94;2059398;28;20215;-69
2024/03/21 12:19:49;;;;;;;18.40;6.00;;;;;;;-145.49;100.00;55703.94;2058043;28;20283;-69
2024/03/21 12:20:49;;;;;;;10.40;6.07;;;;;;;-145.49;100.00;55703.94;2056045;28;20282;-69
2024/03/21 12:21:50;;;;;;;11.27;6.00;;;;;;;-145.49;100.00;55703.94;2058285;28;20703;-69
2024/03/21 12:22:50;;;;;;;11.57;6.83;;;;;;;-145.49;100.00;55703.94;2064717;28;20206;-69
2024/03/21 12:23:51;;;;;;;11.63;7.33;;;;;;;-145.49;100.00;55703.94;2065640;28;20563;-70
2024/03/21 12:24:52;;;;;;;21.57;6.87;;;;;;;-145.49;100.00;55703.94;2058724;28;20683;-69
2024/03/21 12:25:52;;;;;;;13.68;5.80;;;;;;;-145.49;100.00;55703.94;2058145;28;20227;-69
2024/03/21 12:26:53;;;;;;;12.27;5.87;;;;;;;-145.49;100.00;55703.94;2066316;28;20206;-70
2024/03/21 12:27:55;;;;;;;14.80;6.63;;;;;;;-145.49;100.00;55703.94;2067209;28;20295;-69
2024/03/21 12:28:56;;;;;;;19.10;7.00;;;;;;;-145.49;100.00;55703.94;2058975;28;20210;-69
2024/03/21 12:29:57;;;;;;;11.85;7.55;;;;;;;-145.49;100.00;55703.94;2059310;28;20210;-69
2024/03/21 12:30:57;;;;;;;10.73;6.73;;;;;;;-145.49;100.00;55703.94;2055437;28;20223;-69
2024/03/21 12:31:58;;;;;;;10.47;6.53;;;;;;;-145.49;100.00;55703.94;2054097;28;20203;-69
2024/03/21 12:32:59;;;;;;;15.63;7.23;;;;;;;-145.49;100.00;55703.94;2060681;28;20221;-69
2024/03/21 12:34:00;;;;;;;12.77;7.37;;;;;;;-145.49;100.00;55703.94;2060220;28;20214;-69
2024/03/21 12:35:00;;;;;;;13.13;6.95;;;;;;;-145.49;100.00;55703.94;2060274;28;20642;-68
2024/03/21 12:36:01;;;;;;;14.50;6.63;;;;;;;-145.49;100.00;55703.94;2059773;28;20823;-69
2024/03/21 12:37:01;;;;;;;13.73;7.33;;;;;;;-145.49;100.00;55703.94;2052147;28;20526;-69
2024/03/21 12:38:02;;;;;;;11.60;6.87;;;;;;;-145.49;100.00;55703.94;2059324;28;20213;-69
2024/03/21 12:39:03;;;;;;;12.73;6.50;;;;;;;-145.49;100.00;55703.94;2067876;28;20206;-70
2024/03/21 12:45:58;;;;;;;18.40;6.30;;;;;;;16.07;67.36;97152.88;2101520;27;20560;-70
2024/03/21 12:46:59;;;;;;;13.88;6.80;;;;;;;16.08;67.55;97155.41;2100793;28;20207;-69
2024/03/21 12:53:22;;;;;;;13.80;7.22;;;;;;;15.45;69.49;97156.38;2102239;27;20569;-69